Anelo, Argentina
Current Conditions -  °F | °C
As of 7:00 PM on Thursday 18 Dec 2014 (Local Time) from SAZN Reporting Station
Clear Clear  
Wind Chill: 88°   Ceiling: Unl
Heat Index: 88°   Visibility: 6mi
Dew Point: 32°   Wind: 15mph
Humidity: 14%   Direction: 230°SW
Pressure: 29.59"   Gusts: NA
Location:  38.12°S, 68.65°W
Report Text: SAZN 182200Z 23013KT CAVOK 31/00 Q1002
Loading
Personal Weather Stations






























Interactive Weather Map New forecast layout! Learn more

10-Day Weather Forecast

Advertisements
Track Severe Weather on mobile